Latest Weather Observations for Rhyll

IDV60901

Issued at 4:25 pm EST Tuesday 29 July 2014 (issued every 10 minutes, with the page automatically refreshed every 10 minutes)

About weather observations | Map of Melbourne area stations | Latest observations for Melbourne area | Other Formats
Station Details ID: 086373 Name: RHYLL Lat: -38.46 Lon: 145.31 Height: 13.4 m
Data from the previous 72 hours. | See also: Recent months at Rhyll
Date/Time
EST
Tmp

°C
App
Tmp
°C
Dew
Point
°C
Rel
Hum
%
Delta-T

°C
Wind Press
QNH
hPa
Press
MSL
hPa
Rain
since
9 am
mm
Dir
 
Spd
km/h
Gust
km/h
Spd
kts
Gust
kts
29/04:00pm 13.3 5.6 10.3 82 1.6 NNW 41 61 22 33 1005.4 1005.4 0.2
29/03:34pm 13.5 5.6 10.9 84 1.4 NNW 43 61 23 33 1005.1 - 0.2
29/03:30pm 13.2 5.4 11.1 87 1.1 NNW 43 57 23 31 1005.1 - 0.2
29/03:02pm 13.3 5.6 10.3 82 1.6 NNW 41 61 22 33 1005.1 - 0.0
29/03:00pm 13.4 5.7 10.2 81 1.7 NNW 41 56 22 30 1005.1 1005.1 0.0
29/02:41pm 13.9 6.5 9.9 77 2.1 NNW 39 59 21 32 1004.8 - 0.0
29/02:30pm 13.4 5.3 10.0 80 1.8 NNW 43 57 23 31 1004.7 - 0.0
29/02:11pm 13.4 5.5 9.5 77 2.0 NNW 41 59 22 32 1004.8 - 0.0
29/02:00pm 13.3 5.0 9.4 77 2.0 NNW 43 56 23 30 1004.9 1004.9 0.0
29/01:30pm 13.0 5.5 9.4 79 1.8 NNW 39 57 21 31 1005.4 - 0.0
29/01:00pm 13.1 5.1 9.0 76 2.1 NNW 41 54 22 29 1005.3 1005.3 0.0
29/12:30pm 13.1 4.1 8.8 75 2.2 NNW 46 59 25 32 1005.4 - 0.0
29/12:00pm 13.1 3.7 8.6 74 2.3 N 48 63 26 34 1006.1 1006.1 0.0
29/11:30am 13.2 4.7 8.5 73 2.3 N 43 54 23 29 1006.7 - 0.0
29/11:00am 13.2 4.5 8.5 73 2.4 N 44 57 24 31 1007.1 1007.1 0.0
29/10:30am 12.8 3.6 8.1 73 2.3 N 46 63 25 34 1007.0 - 0.0
29/10:00am 12.6 3.4 8.1 74 2.2 N 46 57 25 31 1006.6 1006.6 0.0
29/09:30am 12.5 3.3 8.0 74 2.2 N 46 59 25 32 1007.4 - 0.0
29/09:00am 12.3 2.7 7.8 74 2.2 N 48 61 26 33 1007.3 1007.3 0.0
29/08:30am 12.2 3.6 8.1 76 2.0 N 43 54 23 29 1007.7 - 0.0
29/08:00am 12.1 2.9 8.0 76 2.0 N 46 57 25 31 1007.9 1007.9 0.0
29/07:30am 12.2 3.4 7.9 75 2.1 N 44 56 24 30 1007.4 - 0.0
29/07:00am 12.2 5.2 8.3 77 1.9 N 35 46 19 25 1007.4 1007.4 0.0
29/06:30am 12.2 4.0 8.1 76 2.0 N 41 52 22 28 1007.4 - 0.0
29/06:00am 12.2 4.4 8.1 76 2.0 N 39 50 21 27 1007.7 1007.7 0.0
29/05:30am 12.2 3.6 8.3 77 1.9 N 43 57 23 31 1007.3 - 0.0
29/05:00am 12.4 3.7 8.5 77 1.9 N 44 56 24 30 1007.6 1007.6 0.0
29/04:30am 12.6 4.1 8.5 76 2.0 N 43 56 23 30 1007.6 - 0.0
29/04:00am 12.6 3.9 8.3 75 2.1 N 44 54 24 29 1007.5 1007.5 0.0
29/03:30am 12.7 4.2 8.4 75 2.1 N 43 52 23 28 1007.9 - 0.0
29/03:00am 12.5 6.1 8.4 76 2.0 N 32 43 17 23 1008.6 1008.6 0.0
29/02:30am 12.5 3.9 8.2 75 2.1 N 43 50 23 27 1008.8 - 0.0
29/02:00am 12.4 3.7 8.5 77 1.9 N 44 57 24 31 1009.1 1009.1 0.0
29/01:30am 12.4 3.7 8.5 77 1.9 N 44 56 24 30 1009.4 - 0.0
29/01:00am 12.8 4.2 8.7 76 2.1 N 44 54 24 29 1009.5 1009.5 0.0
29/12:30am 12.9 4.8 8.6 75 2.1 N 41 50 22 27 1010.2 - 0.0
29/12:00am 13.0 4.9 8.5 74 2.2 N 41 50 22 27 1010.6 1010.6 0.0
 
Date/Time
EST
Tmp

°C
App
Tmp
°C
Dew
Point
°C
Rel
Hum
%
Delta-T

°C
Wind Press
QNH
hPa
Press
MSL
hPa
Rain
since
9 am
mm
Dir
 
Spd
km/h
Gust
km/h
Spd
kts
Gust
kts
28/11:30pm 13.0 5.3 8.7 75 2.2 N 39 50 21 27 1010.9 - 0.0
28/11:00pm 12.8 5.5 8.7 76 2.1 N 37 44 20 24 1011.2 1011.2 0.0
28/10:30pm 12.6 5.6 8.5 76 2.0 N 35 43 19 23 1011.4 - 0.0
28/10:00pm 12.7 5.0 8.6 76 2.0 N 39 46 21 25 1011.4 1011.4 0.0
28/09:30pm 12.7 5.7 8.4 75 2.1 N 35 43 19 23 1011.3 - 0.0
28/09:00pm 12.8 6.2 8.5 75 2.1 NNW 33 44 18 24 1011.3 1011.3 0.0
28/08:30pm 13.2 6.2 8.5 73 2.3 N 35 46 19 25 1011.5 - 0.0
28/08:00pm 13.0 7.0 8.7 75 2.2 N 30 39 16 21 1011.6 1011.6 0.0
28/07:30pm 13.2 6.8 8.7 74 2.3 NNW 32 39 17 21 1011.6 - 0.0
28/07:00pm 12.9 8.8 8.8 76 2.1 N 20 28 11 15 1011.6 1011.6 0.0
28/06:30pm 12.2 10.2 8.7 79 1.7 NNE 9 17 5 9 1011.3 - 0.0
28/06:00pm 12.8 10.1 8.9 77 2.0 N 13 19 7 10 1011.1 1011.1 0.0
28/05:30pm 13.5 9.2 9.2 75 2.2 NNW 22 26 12 14 1011.2 - 0.0
28/05:00pm 13.9 8.8 9.1 73 2.4 NNW 26 37 14 20 1010.9 1010.9 0.0
28/04:30pm 14.1 9.7 8.9 71 2.6 NNW 22 32 12 17 1011.0 - 0.0
28/04:00pm 15.0 11.2 8.9 67 3.1 NNW 19 24 10 13 1011.4 1011.4 0.0
28/03:30pm 14.9 10.8 8.6 66 3.2 NNW 20 32 11 17 1011.1 - 0.0
28/03:00pm 14.9 9.7 8.8 67 3.1 NNW 26 33 14 18 1010.8 1010.8 0.0
28/02:30pm 15.6 10.3 8.6 63 3.6 NNW 26 37 14 20 1010.9 - 0.0
28/02:00pm 15.3 10.5 9.0 66 3.2 NNW 24 33 13 18 1011.5 1011.5 0.0
28/01:30pm 15.2 10.0 8.7 65 3.3 NNW 26 35 14 19 1011.7 - 0.0
28/01:00pm 14.9 9.3 8.6 66 3.2 NNW 28 39 15 21 1012.2 1012.2 0.0
28/12:30pm 14.9 10.3 8.2 64 3.4 NNW 22 33 12 18 1012.9 - 0.0
28/12:00pm 15.1 10.9 7.6 61 3.7 NW 19 30 10 16 1013.3 1013.3 0.0
28/11:30am 15.0 11.7 8.0 63 3.5 NW 15 26 8 14 1013.7 - 0.0
28/11:00am 14.7 12.2 8.2 65 3.3 NW 11 26 6 14 1014.1 1014.1 0.0
28/10:30am 13.7 8.7 7.9 68 2.9 NNW 24 39 13 21 1014.3 - 0.0
28/10:00am 12.9 7.5 7.8 71 2.5 N 26 32 14 17 1014.4 1014.4 0.0
28/09:30am 12.2 6.2 6.9 70 2.5 N 28 35 15 19 1014.7 - 0.0
28/09:00am 11.9 7.0 6.8 71 2.4 N 22 33 12 18 1014.9 1014.9 0.0
28/08:30am 11.4 5.7 6.7 73 2.2 N 26 33 14 18 1014.9 - 0.0
28/08:00am 11.0 5.7 6.7 75 2.0 N 24 32 13 17 1015.1 1015.1 0.0
28/07:30am 10.7 5.4 6.8 77 1.8 N 24 30 13 16 1015.2 - 0.0
28/07:00am 10.4 5.9 6.9 79 1.7 N 20 26 11 14 1015.3 1015.3 0.0
28/06:30am 10.6 5.4 7.1 79 1.7 N 24 32 13 17 1015.2 - 0.0
28/06:00am 10.8 4.8 7.1 78 1.8 N 28 35 15 19 1015.2 1015.2 0.0
28/05:30am 10.8 6.0 7.5 80 1.6 NNW 22 28 12 15 1015.3 - 0.0
28/05:00am 10.9 5.7 7.4 79 1.7 N 24 32 13 17 1015.4 1015.4 0.0
28/04:30am 11.3 5.0 7.6 78 1.8 N 30 39 16 21 1015.4 - 0.0
28/04:00am 11.5 5.2 7.6 77 1.9 NNW 30 37 16 20 1015.7 1015.7 0.0
28/03:30am 11.7 6.3 8.0 78 1.8 NNW 26 39 14 21 1015.7 - 0.0
28/03:00am 11.7 7.1 8.0 78 1.8 N 22 32 12 17 1016.1 1016.1 0.0
28/02:30am 11.5 6.5 8.0 79 1.7 NNW 24 32 13 17 1016.5 - 0.0
28/02:00am 11.6 4.9 8.1 79 1.7 N 33 39 18 21 1016.5 1016.5 0.0
28/01:30am 12.1 3.9 8.0 76 2.0 N 41 50 22 27 1016.4 - 0.0
28/01:00am 12.2 4.8 8.5 78 1.8 N 37 44 20 24 1016.4 1016.4 0.0
28/12:30am 12.3 5.9 8.4 77 1.9 N 32 37 17 20 1017.3 - 0.0
28/12:00am 12.2 5.8 8.5 78 1.8 NNW 32 41 17 22 1017.6 1017.6 0.0
 
Date/Time
EST
Tmp

°C
App
Tmp
°C
Dew
Point
°C
Rel
Hum
%
Delta-T

°C
Wind Press
QNH
hPa
Press
MSL
hPa
Rain
since
9 am
mm
Dir
 
Spd
km/h
Gust
km/h
Spd
kts
Gust
kts
27/11:30pm 12.3 5.9 8.6 78 1.8 NNW 32 41 17 22 1017.6 - 0.0
27/11:00pm 12.4 5.1 8.7 78 1.8 N 37 48 20 26 1017.7 1017.7 0.0
27/10:30pm 12.3 6.0 9.0 80 1.7 N 32 39 17 21 1018.5 - 0.0
27/10:00pm 12.2 5.3 8.9 80 1.6 N 35 43 19 23 1018.7 1018.7 0.0
27/09:30pm 12.1 5.6 8.9 81 1.6 NNW 33 44 18 24 1019.1 - 0.0
27/09:00pm 12.1 5.6 8.9 81 1.6 NNW 33 41 18 22 1019.0 1019.0 0.0
27/08:30pm 12.1 5.6 8.8 80 1.6 N 33 43 18 23 1019.1 - 0.0
27/08:00pm 12.0 7.2 8.7 80 1.6 N 24 30 13 16 1019.5 1019.5 0.0
27/07:30pm 11.9 8.0 8.7 81 1.6 N 19 24 10 13 1019.8 - 0.0
27/07:00pm 12.0 8.1 8.8 81 1.6 N 19 22 10 12 1019.8 1019.8 0.0
27/06:30pm 12.1 9.3 8.6 79 1.7 NNW 13 17 7 9 1019.8 - 0.0
27/06:00pm 12.4 8.9 8.7 78 1.8 NNW 17 22 9 12 1019.5 1019.5 0.0
27/05:30pm 12.9 8.8 8.6 75 2.1 NNW 20 24 11 13 1019.5 - 0.0
27/05:00pm 13.2 8.7 8.5 73 2.3 NNW 22 28 12 15 1019.5 1019.5 0.0
27/04:30pm 13.6 10.7 8.2 70 2.7 NNW 13 22 7 12 1019.7 - 0.0
27/04:00pm 13.8 10.7 8.8 72 2.5 NNW 15 20 8 11 1019.8 1019.8 0.0
27/03:30pm 14.2 11.8 8.6 69 2.8 NW 11 20 6 11 1020.2 - 0.0
27/03:00pm 14.0 10.6 9.2 73 2.4 NNW 17 24 9 13 1019.9 1019.9 0.0
27/02:30pm 14.2 11.1 8.8 70 2.7 NNW 15 24 8 13 1019.9 - 0.0
27/02:00pm 13.8 10.5 9.5 75 2.2 NNW 17 24 9 13 1020.2 1020.2 0.0
27/01:30pm 14.2 9.1 9.2 72 2.5 NNW 26 35 14 19 1020.4 - 0.0
27/01:00pm 14.2 9.9 9.2 72 2.5 NNW 22 35 12 19 1021.0 1021.0 0.0
27/12:30pm 13.6 8.8 8.9 73 2.4 NNW 24 32 13 17 1021.4 - 0.0
27/12:00pm 13.2 8.8 8.9 75 2.2 NNW 22 32 12 17 1021.9 1021.9 0.0
27/11:30am 13.1 9.5 9.7 80 1.7 NNW 19 24 10 13 1022.6 - 0.0
27/11:00am 12.0 8.1 8.8 81 1.6 NNW 19 26 10 14 1023.2 1023.2 0.0
27/10:30am 10.9 6.7 8.3 84 1.3 N 20 24 11 13 1023.6 - 0.0
27/10:00am 10.5 7.6 8.3 86 1.1 NNW 13 19 7 10 1024.2 1024.2 0.0
27/09:30am 10.5 7.7 8.6 88 0.9 NNW 13 19 7 10 1024.5 - 0.0
27/09:00am 10.1 6.8 8.0 87 1.0 NNW 15 20 8 11 1024.4 1024.4 1.8
27/08:30am 9.7 7.3 8.6 93 0.5 NNW 11 15 6 8 1024.5 - 1.8
27/08:00am 9.2 6.7 8.3 94 0.4 NNW 11 15 6 8 1024.4 1024.4 1.8
27/07:30am 8.7 6.5 7.9 95 0.4 NNW 9 13 5 7 1024.2 - 1.8
27/07:00am 8.7 6.5 7.8 94 0.4 NNW 9 15 5 8 1024.1 1024.1 1.8
27/06:30am 8.8 6.6 7.9 94 0.4 NNW 9 15 5 8 1023.9 - 1.8
27/06:00am 9.1 6.9 8.0 93 0.5 NNW 9 17 5 9 1023.8 1023.8 1.8
27/05:30am 9.2 7.1 8.3 94 0.4 NNW 9 19 5 10 1023.7 - 1.8
27/05:00am 9.0 6.8 7.9 93 0.5 NNW 9 13 5 7 1023.8 1023.8 1.8
27/04:30am 9.3 7.2 8.2 93 0.5 NNW 9 15 5 8 1024.0 - 1.8
27/04:00am 9.7 7.7 8.6 93 0.5 NW 9 17 5 9 1024.0 1024.0 1.8
27/03:30am 10.1 8.2 9.2 94 0.4 NNW 9 17 5 9 1024.0 - 1.8
27/03:00am 10.3 8.8 9.2 93 0.5 NNW 7 17 4 9 1024.2 1024.2 1.8
27/02:30am 11.0 9.9 10.1 94 0.5 NW 6 11 3 6 1024.4 - 1.8
27/02:00am 11.2 10.6 10.4 95 0.4 WNW 4 7 2 4 1024.3 1024.3 1.8
27/01:30am 11.0 10.3 10.2 95 0.4 NW 4 7 2 4 1024.4 - 1.8
27/01:00am 11.4 10.9 10.8 96 0.3 NW 4 7 2 4 1024.4 1024.4 1.8
27/12:30am 11.5 10.5 10.9 96 0.3 WNW 7 13 4 7 1024.6 - 1.8
27/12:00am 11.6 10.8 11.1 97 0.3 WNW 6 9 3 5 1024.7 1024.7 1.6
 
Date/Time
EST
Tmp

°C
App
Tmp
°C
Dew
Point
°C
Rel
Hum
%
Delta-T

°C
Wind Press
QNH
hPa
Press
MSL
hPa
Rain
since
9 am
mm
Dir
 
Spd
km/h
Gust
km/h
Spd
kts
Gust
kts
26/11:30pm 11.7 11.7 11.2 97 0.3 W 2 6 1 3 1024.9 - 1.6
26/11:00pm 11.7 10.4 11.2 97 0.3 W 9 13 5 7 1024.8 1024.8 1.2
26/10:30pm 11.8 10.1 11.2 96 0.3 W 11 19 6 10 1024.9 - 1.0
26/10:00pm 11.9 10.6 11.1 95 0.4 W 9 17 5 9 1024.8 1024.8 0.8
26/09:30pm 12.1 10.9 11.5 96 0.3 W 9 13 5 7 1024.7 - 0.8
26/09:00pm 12.1 11.2 11.3 95 0.4 W 7 13 4 7 1024.5 1024.5 0.8
26/08:30pm 12.0 10.7 11.2 95 0.4 W 9 15 5 8 1024.2 - 0.8
26/08:00pm 11.7 10.9 10.9 95 0.4 W 6 11 3 6 1024.0 1024.0 0.8
26/07:30pm 12.0 11.6 11.2 95 0.4 WNW 4 9 2 5 1023.9 - 0.6
26/07:00pm 12.3 11.6 11.5 95 0.4 W 6 11 3 6 1023.7 1023.7 0.6
26/06:30pm 12.2 11.3 11.3 94 0.5 WNW 7 15 4 8 1023.5 - 0.2
26/06:00pm 12.4 11.4 11.1 92 0.7 WNW 7 15 4 8 1023.2 1023.2 0.0
26/05:30pm 12.1 11.2 10.7 91 0.7 WNW 6 11 3 6 1022.9 - 0.0
26/05:00pm 12.4 11.3 10.6 89 0.9 WNW 7 13 4 7 1022.7 1022.7 0.0
26/04:30pm 12.9 11.8 10.8 87 1.1 W 7 15 4 8 1022.5 - 0.0

Latest Capital City Observations: Canberra | Sydney | Melbourne | Brisbane | Adelaide | Perth | Hobart | Darwin

Other Formats:

Comma delimited format used in spreadsheet applications
http://www.bom.gov.au/fwo/IDV60901/IDV60901.94892.axf

JavaScript Object Notation format (JSON) in row-major order
http://www.bom.gov.au/fwo/IDV60901/IDV60901.94892.json